createdAt,value
2022-09-07T00:04:32.322Z,17.00
2022-09-07T00:09:39.349Z,16.90
2022-09-07T00:14:50.958Z,16.80
2022-09-07T00:19:58.714Z,16.90
2022-09-07T00:25:06.836Z,16.90
2022-09-07T00:30:14.268Z,16.90
2022-09-07T00:35:21.299Z,16.80
2022-09-07T00:40:28.237Z,16.70
2022-09-07T00:45:37.345Z,16.80
2022-09-07T00:50:54.434Z,16.70
2022-09-07T00:56:03.577Z,16.70
2022-09-07T01:01:11.565Z,16.80
2022-09-07T01:06:23.895Z,16.80
2022-09-07T01:11:33.304Z,16.50
2022-09-07T01:16:45.375Z,16.40
2022-09-07T01:22:12.124Z,16.30
2022-09-07T01:27:41.874Z,16.30
2022-09-07T01:33:12.256Z,16.20
2022-09-07T01:38:45.383Z,16.30
2022-09-07T01:44:09.027Z,16.10
2022-09-07T01:49:32.135Z,16.00
2022-09-07T01:54:49.675Z,16.10
2022-09-07T02:00:10.174Z,16.10
2022-09-07T02:05:29.806Z,16.20
2022-09-07T02:10:44.136Z,16.30
2022-09-07T02:16:00.952Z,16.30
2022-09-07T02:21:11.394Z,16.30
2022-09-07T02:26:25.065Z,16.30
2022-09-07T02:31:32.309Z,16.50
2022-09-07T02:36:43.484Z,16.30
2022-09-07T02:41:50.744Z,16.30
2022-09-07T02:47:14.335Z,16.30
2022-09-07T02:52:31.624Z,16.00
2022-09-07T02:57:43.395Z,16.00
2022-09-07T03:03:15.674Z,16.00
2022-09-07T03:08:41.996Z,15.90
2022-09-07T03:13:49.193Z,15.80
2022-09-07T03:19:01.126Z,16.00
2022-09-07T03:24:09.014Z,16.10
2022-09-07T03:29:16.275Z,16.00
2022-09-07T03:34:23.135Z,15.90
2022-09-07T03:39:31.332Z,15.90
2022-09-07T03:44:38.495Z,15.90
2022-09-07T03:49:45.445Z,15.80
2022-09-07T03:54:52.766Z,15.90
2022-09-07T03:59:59.874Z,15.80
2022-09-07T04:05:07.666Z,15.70
2022-09-07T04:10:14.488Z,15.90
2022-09-07T04:15:21.466Z,15.90
2022-09-07T04:20:32.185Z,16.00
2022-09-07T04:25:39.347Z,16.00
2022-09-07T04:30:46.930Z,16.00
2022-09-07T04:35:54.056Z,15.80
2022-09-07T04:41:11.178Z,15.80
2022-09-07T04:46:27.735Z,15.80
2022-09-07T04:51:35.455Z,16.00
2022-09-07T04:56:43.470Z,16.00
2022-09-07T05:01:50.414Z,16.10
2022-09-07T05:06:57.486Z,16.20
2022-09-07T05:12:04.936Z,16.20
2022-09-07T05:17:12.274Z,16.10
2022-09-07T05:22:19.865Z,16.10
2022-09-07T05:27:27.005Z,16.20
2022-09-07T05:32:33.845Z,16.20
2022-09-07T05:37:41.445Z,16.40
2022-09-07T05:42:48.639Z,16.40
2022-09-07T05:47:56.127Z,16.70
2022-09-07T05:53:03.646Z,16.70
2022-09-07T05:58:11.566Z,16.70
2022-09-07T06:03:18.837Z,16.70
2022-09-07T06:08:25.795Z,16.70
2022-09-07T06:13:32.928Z,16.90
2022-09-07T06:18:44.125Z,17.00
2022-09-07T06:23:52.055Z,17.10
2022-09-07T06:28:59.296Z,17.10
2022-09-07T06:34:06.424Z,17.10
2022-09-07T06:39:13.727Z,17.20
2022-09-07T06:44:21.026Z,17.20
2022-09-07T06:49:28.715Z,17.40
2022-09-07T06:59:44.511Z,17.80
2022-09-07T07:04:52.514Z,17.70
2022-09-07T07:09:59.685Z,17.80
2022-09-07T07:15:09.149Z,17.70
2022-09-07T07:20:18.366Z,17.80
2022-09-07T07:25:25.805Z,17.70
2022-09-07T07:30:32.966Z,17.80
2022-09-07T07:35:39.877Z,17.50
2022-09-07T07:45:57.402Z,17.80
2022-09-07T07:51:12.098Z,17.90
2022-09-07T07:56:17.708Z,17.90
2022-09-07T08:01:24.722Z,18.00
2022-09-07T08:06:31.956Z,18.20
2022-09-07T08:11:40.638Z,18.10
2022-09-07T08:16:47.969Z,18.40
2022-09-07T08:21:54.926Z,18.50
2022-09-07T08:27:02.216Z,18.70
2022-09-07T08:32:09.165Z,19.20
2022-09-07T08:37:16.015Z,19.50
2022-09-07T08:42:36.105Z,19.90
2022-09-07T08:47:53.915Z,20.40
2022-09-07T08:53:19.135Z,20.70
2022-09-07T08:58:48.795Z,21.10
2022-09-07T09:04:15.545Z,21.60
2022-09-07T09:09:10.115Z,21.70
2022-09-07T09:14:48.115Z,22.40
2022-09-07T09:20:02.295Z,22.70
2022-09-07T09:25:34.367Z,22.80
2022-09-07T09:30:41.456Z,22.60
2022-09-07T09:35:52.045Z,22.80
2022-09-07T09:41:11.276Z,23.10
2022-09-07T09:46:34.146Z,23.80
2022-09-07T09:56:55.866Z,23.80
2022-09-07T10:07:33.105Z,23.90
2022-09-07T10:12:42.285Z,24.40
2022-09-07T10:17:51.069Z,24.40
2022-09-07T10:23:00.896Z,24.50
2022-09-07T10:29:06.056Z,24.70
2022-09-07T10:39:27.096Z,24.40
2022-09-07T10:44:50.364Z,24.10
2022-09-07T10:50:25.880Z,24.50
2022-09-07T10:55:34.248Z,24.40
2022-09-07T11:00:45.688Z,25.00
2022-09-07T11:06:12.224Z,24.20
2022-09-07T11:12:03.446Z,24.40
2022-09-07T11:17:05.007Z,24.70
2022-09-07T11:22:56.565Z,25.20
2022-09-07T11:28:11.035Z,24.90
2022-09-07T11:33:27.605Z,25.10
2022-09-07T11:38:59.650Z,25.50
2022-09-07T11:44:16.489Z,25.40
2022-09-07T11:49:27.363Z,24.90
2022-09-07T11:54:48.859Z,25.00
2022-09-07T12:00:15.141Z,25.00
2022-09-07T12:05:59.498Z,25.00
2022-09-07T12:11:49.450Z,24.70
2022-09-07T12:17:21.779Z,24.70
2022-09-07T12:22:28.790Z,24.20
2022-09-07T12:27:39.370Z,24.10
2022-09-07T12:32:58.454Z,24.20
2022-09-07T12:38:21.400Z,23.60
2022-09-07T12:43:52.920Z,23.20
2022-09-07T12:49:09.849Z,23.10
2022-09-07T12:54:44.838Z,23.40
2022-09-07T13:00:13.625Z,23.70
2022-09-07T13:05:36.940Z,23.30
2022-09-07T13:10:47.969Z,23.00
2022-09-07T13:16:17.797Z,22.70
2022-09-07T13:21:40.720Z,22.20
2022-09-07T13:27:07.494Z,22.20
2022-09-07T13:37:55.829Z,22.10
2022-09-07T13:43:05.031Z,22.10
2022-09-07T13:48:31.451Z,21.50
2022-09-07T13:53:52.342Z,21.30
2022-09-07T13:58:59.568Z,21.50
2022-09-07T14:04:08.379Z,22.20
2022-09-07T14:09:25.553Z,22.80
2022-09-07T14:14:33.900Z,22.40
2022-09-07T14:19:52.429Z,22.90
2022-09-07T14:25:05.249Z,22.40
2022-09-07T14:30:30.975Z,22.20
2022-09-07T14:35:42.849Z,21.80
2022-09-07T14:40:51.571Z,21.30
2022-09-07T14:46:33.064Z,20.70
2022-09-07T14:51:44.580Z,20.00
2022-09-07T14:57:19.810Z,20.20
2022-09-07T15:02:32.222Z,20.30
2022-09-07T15:07:48.429Z,19.80
2022-09-07T15:12:58.810Z,19.70
2022-09-07T15:18:09.949Z,19.70
2022-09-07T15:23:19.817Z,19.50
2022-09-07T15:33:43.550Z,19.20
2022-09-07T15:39:06.078Z,19.00
2022-09-07T15:44:00.409Z,18.30
2022-09-07T15:49:07.598Z,18.10
2022-09-07T15:54:16.827Z,18.00
2022-09-07T15:59:24.220Z,17.60
2022-09-07T16:04:31.556Z,17.80
2022-09-07T16:09:38.633Z,17.40
2022-09-07T16:14:45.591Z,17.40
2022-09-07T16:19:52.519Z,17.50
2022-09-07T16:39:10.017Z,17.40
2022-09-07T16:44:17.085Z,17.50
2022-09-07T16:49:23.816Z,17.60
2022-09-07T16:54:32.389Z,17.60
2022-09-07T16:59:38.852Z,17.50
2022-09-07T17:04:46.714Z,17.40
2022-09-07T17:09:54.248Z,17.50
2022-09-07T17:15:00.995Z,17.40
2022-09-07T17:20:11.146Z,17.60
2022-09-07T17:25:17.836Z,17.40
2022-09-07T17:30:24.717Z,17.20
2022-09-07T17:35:37.241Z,17.30
2022-09-07T17:40:44.027Z,17.00
2022-09-07T17:45:52.850Z,16.90
2022-09-07T17:51:07.144Z,17.10
2022-09-07T17:56:17.219Z,17.10
2022-09-07T18:01:25.500Z,17.00
2022-09-07T18:06:32.288Z,16.70
2022-09-07T18:11:48.115Z,16.70
2022-09-07T18:16:51.504Z,16.80
2022-09-07T18:22:02.741Z,16.80
2022-09-07T18:27:10.356Z,16.80
2022-09-07T18:32:17.789Z,16.80
2022-09-07T18:37:27.272Z,16.80
2022-09-07T18:42:35.376Z,16.50
2022-09-07T18:47:43.751Z,16.70
2022-09-07T18:52:52.472Z,16.70
2022-09-07T18:57:58.905Z,16.70
2022-09-07T19:03:05.999Z,16.60
2022-09-07T19:08:14.239Z,16.40
2022-09-07T19:13:20.969Z,16.60
2022-09-07T19:18:27.786Z,16.50
2022-09-07T19:23:39.266Z,16.30
2022-09-07T19:28:55.417Z,16.20
2022-09-07T19:34:05.174Z,16.30
2022-09-07T19:39:14.419Z,16.20
2022-09-07T19:44:21.192Z,16.10
2022-09-07T19:49:27.982Z,16.00
2022-09-07T19:54:37.393Z,16.00
2022-09-07T19:59:45.639Z,15.90
2022-09-07T20:04:52.783Z,15.60
2022-09-07T20:10:00.519Z,16.00
2022-09-07T20:15:08.457Z,15.80
2022-09-07T20:20:17.455Z,15.80
2022-09-07T20:25:25.022Z,15.70
2022-09-07T20:30:33.832Z,15.90
2022-09-07T20:35:42.620Z,15.80
2022-09-07T20:40:59.810Z,15.60
2022-09-07T20:46:09.609Z,15.50
2022-09-07T20:51:22.123Z,15.60
2022-09-07T20:56:34.970Z,15.50
2022-09-07T21:01:42.670Z,15.50
2022-09-07T21:06:50.010Z,15.30
2022-09-07T21:11:58.091Z,15.30
2022-09-07T21:17:06.000Z,15.30
2022-09-07T21:22:13.320Z,15.30
2022-09-07T21:27:20.009Z,15.40
2022-09-07T21:32:26.683Z,15.10
2022-09-07T21:37:34.772Z,15.10
2022-09-07T21:42:41.873Z,15.30
2022-09-07T21:47:49.070Z,15.10
2022-09-07T21:52:57.876Z,15.20
2022-09-07T21:58:06.182Z,15.20
2022-09-07T22:03:13.037Z,15.40
2022-09-07T22:08:21.702Z,15.30
2022-09-07T22:13:29.764Z,15.00
2022-09-07T22:18:39.740Z,15.10
2022-09-07T22:23:53.795Z,15.10
2022-09-07T22:29:01.781Z,15.00
2022-09-07T22:34:10.899Z,15.00
2022-09-07T22:39:20.930Z,15.00
2022-09-07T22:44:30.124Z,14.80
2022-09-07T22:49:37.134Z,15.10
2022-09-07T22:54:44.220Z,15.10
2022-09-07T22:59:53.065Z,15.20
2022-09-07T23:05:00.343Z,15.20
2022-09-07T23:10:09.393Z,15.10
2022-09-07T23:15:16.916Z,15.00
2022-09-07T23:20:26.334Z,14.80
2022-09-07T23:25:33.802Z,14.90
2022-09-07T23:30:43.876Z,15.00
2022-09-07T23:36:03.711Z,15.20
2022-09-07T23:41:10.431Z,14.80
2022-09-07T23:46:19.052Z,15.00
2022-09-07T23:51:26.111Z,14.90
2022-09-07T23:56:36.652Z,14.70
